sensor_id;sensor_type;location;lat;lon;timestamp;temperature;humidity
10149;DHT22;5115;50.920;6.376;2023-03-01T00:01:06;2.20;99.90
10149;DHT22;5115;50.920;6.376;2023-03-01T00:03:32;2.10;99.90
10149;DHT22;5115;50.920;6.376;2023-03-01T00:05:58;2.10;99.90
10149;DHT22;5115;50.920;6.376;2023-03-01T00:08:24;2.10;99.90
10149;DHT22;5115;50.920;6.376;2023-03-01T00:11:06;2.10;99.90
10149;DHT22;5115;50.920;6.376;2023-03-01T00:13:32;2.00;99.90
10149;DHT22;5115;50.920;6.376;2023-03-01T00:15:57;1.90;99.90
10149;DHT22;5115;50.920;6.376;2023-03-01T00:18:23;1.80;99.90
10149;DHT22;5115;50.920;6.376;2023-03-01T00:20:53;1.80;99.90
10149;DHT22;5115;50.920;6.376;2023-03-01T00:23:20;1.80;99.90
10149;DHT22;5115;50.920;6.376;2023-03-01T00:25:46;1.70;99.90
10149;DHT22;5115;50.920;6.376;2023-03-01T00:28:11;1.80;99.90
10149;DHT22;5115;50.920;6.376;2023-03-01T00:30:37;1.80;99.90
10149;DHT22;5115;50.920;6.376;2023-03-01T00:33:03;1.90;99.90
10149;DHT22;5115;50.920;6.376;2023-03-01T00:35:28;1.90;99.90
10149;DHT22;5115;50.920;6.376;2023-03-01T00:37:54;1.90;99.90
10149;DHT22;5115;50.920;6.376;2023-03-01T00:40:24;1.90;99.90
10149;DHT22;5115;50.920;6.376;2023-03-01T00:42:50;1.90;99.90
10149;DHT22;5115;50.920;6.376;2023-03-01T00:45:16;2.00;99.90
10149;DHT22;5115;50.920;6.376;2023-03-01T00:47:41;1.90;99.90
10149;DHT22;5115;50.920;6.376;2023-03-01T00:50:07;1.90;99.90
10149;DHT22;5115;50.920;6.376;2023-03-01T00:52:33;1.90;99.90
10149;DHT22;5115;50.920;6.376;2023-03-01T00:54:59;2.00;99.90
10149;DHT22;5115;50.920;6.376;2023-03-01T00:57:24;2.00;99.90
10149;DHT22;5115;50.920;6.376;2023-03-01T00:59:50;2.00;99.90
10149;DHT22;5115;50.920;6.376;2023-03-01T01:02:18;2.00;99.90
10149;DHT22;5115;50.920;6.376;2023-03-01T01:04:45;2.00;99.90
10149;DHT22;5115;50.920;6.376;2023-03-01T01:07:11;2.00;99.90
10149;DHT22;5115;50.920;6.376;2023-03-01T01:09:36;2.00;99.90
10149;DHT22;5115;50.920;6.376;2023-03-01T01:12:03;2.00;99.90
10149;DHT22;5115;50.920;6.376;2023-03-01T01:14:29;2.00;99.90
10149;DHT22;5115;50.920;6.376;2023-03-01T01:16:55;2.00;99.90
10149;DHT22;5115;50.920;6.376;2023-03-01T01:19:20;2.00;99.90
10149;DHT22;5115;50.920;6.376;2023-03-01T01:21:46;2.00;99.90
10149;DHT22;5115;50.920;6.376;2023-03-01T01:24:13;1.90;99.90
10149;DHT22;5115;50.920;6.376;2023-03-01T01:26:39;1.90;99.90
10149;DHT22;5115;50.920;6.376;2023-03-01T01:29:06;1.90;99.90
10149;DHT22;5115;50.920;6.376;2023-03-01T01:31:33;1.90;99.90
10149;DHT22;5115;50.920;6.376;2023-03-01T01:34:01;1.90;99.90
10149;DHT22;5115;50.920;6.376;2023-03-01T01:36:27;1.90;99.90
10149;DHT22;5115;50.920;6.376;2023-03-01T01:38:53;1.80;99.90
10149;DHT22;5115;50.920;6.376;2023-03-01T01:41:19;1.90;99.90
10149;DHT22;5115;50.920;6.376;2023-03-01T01:43:48;1.90;99.90
10149;DHT22;5115;50.920;6.376;2023-03-01T01:48:46;1.90;99.90
10149;DHT22;5115;50.920;6.376;2023-03-01T01:51:19;1.90;99.90
10149;DHT22;5115;50.920;6.376;2023-03-01T01:53:51;1.90;99.90
10149;DHT22;5115;50.920;6.376;2023-03-01T01:56:18;1.90;99.90
10149;DHT22;5115;50.920;6.376;2023-03-01T01:58:45;1.80;99.90
10149;DHT22;5115;50.920;6.376;2023-03-01T02:01:13;1.70;99.90
10149;DHT22;5115;50.920;6.376;2023-03-01T02:03:39;1.50;99.90
10149;DHT22;5115;50.920;6.376;2023-03-01T02:08:59;1.50;99.90
10149;DHT22;5115;50.920;6.376;2023-03-01T02:11:25;1.50;99.90
10149;DHT22;5115;50.920;6.376;2023-03-01T02:13:53;1.50;99.90
10149;DHT22;5115;50.920;6.376;2023-03-01T02:16:19;1.30;99.90
10149;DHT22;5115;50.920;6.376;2023-03-01T02:18:45;1.20;99.90
10149;DHT22;5115;50.920;6.376;2023-03-01T02:21:37;1.20;99.90
10149;DHT22;5115;50.920;6.376;2023-03-01T02:24:22;1.10;99.90
10149;DHT22;5115;50.920;6.376;2023-03-01T02:26:53;1.10;99.90
10149;DHT22;5115;50.920;6.376;2023-03-01T02:29:21;1.10;99.90
10149;DHT22;5115;50.920;6.376;2023-03-01T02:31:47;1.10;99.90
10149;DHT22;5115;50.920;6.376;2023-03-01T02:34:20;1.10;99.90
10149;DHT22;5115;50.920;6.376;2023-03-01T02:36:49;1.00;99.90
10149;DHT22;5115;50.920;6.376;2023-03-01T02:39:20;1.00;99.90
10149;DHT22;5115;50.920;6.376;2023-03-01T02:41:49;0.90;99.90
10149;DHT22;5115;50.920;6.376;2023-03-01T02:44:15;0.80;99.90
10149;DHT22;5115;50.920;6.376;2023-03-01T02:46:50;0.80;99.90
10149;DHT22;5115;50.920;6.376;2023-03-01T02:49:25;0.90;99.90
10149;DHT22;5115;50.920;6.376;2023-03-01T02:54:57;0.90;99.90
10149;DHT22;5115;50.920;6.376;2023-03-01T02:57:25;0.80;99.90
10149;DHT22;5115;50.920;6.376;2023-03-01T02:59:54;0.90;99.90
10149;DHT22;5115;50.920;6.376;2023-03-01T03:02:26;1.00;99.90
10149;DHT22;5115;50.920;6.376;2023-03-01T03:05:10;1.10;99.90
10149;DHT22;5115;50.920;6.376;2023-03-01T03:07:39;1.10;99.90
10149;DHT22;5115;50.920;6.376;2023-03-01T03:10:07;1.10;99.90
10149;DHT22;5115;50.920;6.376;2023-03-01T03:12:33;1.10;99.90
10149;DHT22;5115;50.920;6.376;2023-03-01T03:14:59;1.10;99.90
10149;DHT22;5115;50.920;6.376;2023-03-01T03:17:24;1.10;99.90
10149;DHT22;5115;50.920;6.376;2023-03-01T03:19:50;1.10;99.90
10149;DHT22;5115;50.920;6.376;2023-03-01T03:22:15;1.00;99.90
10149;DHT22;5115;50.920;6.376;2023-03-01T03:24:41;1.00;99.90
10149;DHT22;5115;50.920;6.376;2023-03-01T03:27:07;1.00;99.90
10149;DHT22;5115;50.920;6.376;2023-03-01T03:29:33;1.00;99.90
10149;DHT22;5115;50.920;6.376;2023-03-01T03:31:59;0.90;99.90
10149;DHT22;5115;50.920;6.376;2023-03-01T03:34:24;0.90;99.90
10149;DHT22;5115;50.920;6.376;2023-03-01T03:36:56;0.90;99.90
10149;DHT22;5115;50.920;6.376;2023-03-01T03:39:25;0.80;99.90
10149;DHT22;5115;50.920;6.376;2023-03-01T03:41:51;0.80;99.90
10149;DHT22;5115;50.920;6.376;2023-03-01T03:44:16;1.30;99.90
10149;DHT22;5115;50.920;6.376;2023-03-01T03:46:42;0.80;99.90
10149;DHT22;5115;50.920;6.376;2023-03-01T03:49:07;0.80;99.90
10149;DHT22;5115;50.920;6.376;2023-03-01T03:51:33;0.80;99.90
10149;DHT22;5115;50.920;6.376;2023-03-01T03:53:58;0.70;99.90
10149;DHT22;5115;50.920;6.376;2023-03-01T03:56:24;0.70;99.90
10149;DHT22;5115;50.920;6.376;2023-03-01T03:58:52;0.70;99.90
10149;DHT22;5115;50.920;6.376;2023-03-01T04:01:17;0.60;99.90
10149;DHT22;5115;50.920;6.376;2023-03-01T04:03:43;0.70;99.90
10149;DHT22;5115;50.920;6.376;2023-03-01T04:06:13;0.60;99.90
10149;DHT22;5115;50.920;6.376;2023-03-01T04:08:38;0.60;99.90
10149;DHT22;5115;50.920;6.376;2023-03-01T04:11:05;0.60;99.90
10149;DHT22;5115;50.920;6.376;2023-03-01T04:13:49;0.60;99.90
10149;DHT22;5115;50.920;6.376;2023-03-01T04:16:15;0.60;99.90
10149;DHT22;5115;50.920;6.376;2023-03-01T04:18:41;0.60;99.90
10149;DHT22;5115;50.920;6.376;2023-03-01T04:21:06;0.60;99.90
10149;DHT22;5115;50.920;6.376;2023-03-01T04:23:32;0.60;99.90
10149;DHT22;5115;50.920;6.376;2023-03-01T04:25:58;0.60;99.90
10149;DHT22;5115;50.920;6.376;2023-03-01T04:28:33;0.50;99.90
10149;DHT22;5115;50.920;6.376;2023-03-01T04:31:05;0.50;99.90
10149;DHT22;5115;50.920;6.376;2023-03-01T04:33:50;0.40;99.90
10149;DHT22;5115;50.920;6.376;2023-03-01T04:36:23;0.40;99.90
10149;DHT22;5115;50.920;6.376;2023-03-01T04:38:50;0.40;99.90
10149;DHT22;5115;50.920;6.376;2023-03-01T04:41:17;0.40;99.90
10149;DHT22;5115;50.920;6.376;2023-03-01T04:43:43;0.40;99.90
10149;DHT22;5115;50.920;6.376;2023-03-01T04:46:11;0.40;99.90
10149;DHT22;5115;50.920;6.376;2023-03-01T04:48:38;0.40;99.90
10149;DHT22;5115;50.920;6.376;2023-03-01T04:51:05;0.30;99.90
10149;DHT22;5115;50.920;6.376;2023-03-01T04:53:31;0.40;99.90
10149;DHT22;5115;50.920;6.376;2023-03-01T04:55:58;0.40;99.90
10149;DHT22;5115;50.920;6.376;2023-03-01T04:58:24;0.40;99.90
10149;DHT22;5115;50.920;6.376;2023-03-01T05:00:50;0.40;99.90
10149;DHT22;5115;50.920;6.376;2023-03-01T05:03:15;0.50;99.90
10149;DHT22;5115;50.920;6.376;2023-03-01T05:05:44;0.40;99.90
10149;DHT22;5115;50.920;6.376;2023-03-01T05:08:10;0.40;99.90
10149;DHT22;5115;50.920;6.376;2023-03-01T05:10:51;0.40;99.90
10149;DHT22;5115;50.920;6.376;2023-03-01T05:13:18;0.40;99.90
10149;DHT22;5115;50.920;6.376;2023-03-01T05:15:48;0.30;99.90
10149;DHT22;5115;50.920;6.376;2023-03-01T05:18:14;0.30;99.90
10149;DHT22;5115;50.920;6.376;2023-03-01T05:20:39;0.20;99.90
10149;DHT22;5115;50.920;6.376;2023-03-01T05:23:05;0.20;99.90
10149;DHT22;5115;50.920;6.376;2023-03-01T05:25:33;0.20;99.90
10149;DHT22;5115;50.920;6.376;2023-03-01T05:28:02;0.30;99.90
10149;DHT22;5115;50.920;6.376;2023-03-01T05:30:31;0.20;99.90
10149;DHT22;5115;50.920;6.376;2023-03-01T05:32:56;0.20;99.90
10149;DHT22;5115;50.920;6.376;2023-03-01T05:35:22;0.30;99.90
10149;DHT22;5115;50.920;6.376;2023-03-01T05:37:49;0.20;99.90
10149;DHT22;5115;50.920;6.376;2023-03-01T05:40:20;0.10;99.90
10149;DHT22;5115;50.920;6.376;2023-03-01T05:42:52;0.10;99.90
10149;DHT22;5115;50.920;6.376;2023-03-01T05:45:19;0.20;99.90
10149;DHT22;5115;50.920;6.376;2023-03-01T05:47:47;0.20;99.90
10149;DHT22;5115;50.920;6.376;2023-03-01T05:50:19;0.20;99.90
10149;DHT22;5115;50.920;6.376;2023-03-01T05:52:46;0.20;99.90
10149;DHT22;5115;50.920;6.376;2023-03-01T05:55:12;0.20;99.90
10149;DHT22;5115;50.920;6.376;2023-03-01T05:57:38;0.10;99.90
10149;DHT22;5115;50.920;6.376;2023-03-01T06:00:03;0.10;99.90
10149;DHT22;5115;50.920;6.376;2023-03-01T06:02:29;0.10;99.90
10149;DHT22;5115;50.920;6.376;2023-03-01T06:04:55;0.00;99.90
10149;DHT22;5115;50.920;6.376;2023-03-01T06:07:20;0.00;99.90
10149;DHT22;5115;50.920;6.376;2023-03-01T06:09:47;0.00;99.90
10149;DHT22;5115;50.920;6.376;2023-03-01T06:12:13;0.00;99.90
10149;DHT22;5115;50.920;6.376;2023-03-01T06:14:38;0.00;99.90
10149;DHT22;5115;50.920;6.376;2023-03-01T06:17:04;0.00;99.90
10149;DHT22;5115;50.920;6.376;2023-03-01T06:19:29;0.10;99.90
10149;DHT22;5115;50.920;6.376;2023-03-01T06:21:55;0.10;99.90
10149;DHT22;5115;50.920;6.376;2023-03-01T06:24:20;0.10;99.90
10149;DHT22;5115;50.920;6.376;2023-03-01T06:26:46;0.10;99.90
10149;DHT22;5115;50.920;6.376;2023-03-01T06:29:11;0.10;99.90
10149;DHT22;5115;50.920;6.376;2023-03-01T06:31:37;0.10;99.90
10149;DHT22;5115;50.920;6.376;2023-03-01T06:34:02;0.80;99.90
10149;DHT22;5115;50.920;6.376;2023-03-01T06:36:28;0.20;99.90
10149;DHT22;5115;50.920;6.376;2023-03-01T06:38:53;0.10;99.90
10149;DHT22;5115;50.920;6.376;2023-03-01T06:41:19;0.10;99.90
10149;DHT22;5115;50.920;6.376;2023-03-01T06:43:44;0.20;99.90
10149;DHT22;5115;50.920;6.376;2023-03-01T06:46:10;0.30;99.90
10149;DHT22;5115;50.920;6.376;2023-03-01T06:48:35;0.40;99.90
10149;DHT22;5115;50.920;6.376;2023-03-01T06:51:01;0.60;99.90
10149;DHT22;5115;50.920;6.376;2023-03-01T06:53:28;0.90;99.90
10149;DHT22;5115;50.920;6.376;2023-03-01T06:55:57;1.30;99.90
10149;DHT22;5115;50.920;6.376;2023-03-01T06:58:23;1.70;99.90
10149;DHT22;5115;50.920;6.376;2023-03-01T07:00:49;2.00;99.90
10149;DHT22;5115;50.920;6.376;2023-03-01T07:03:14;2.40;99.90
10149;DHT22;5115;50.920;6.376;2023-03-01T07:05:40;2.90;99.90
10149;DHT22;5115;50.920;6.376;2023-03-01T07:08:05;3.30;99.90
10149;DHT22;5115;50.920;6.376;2023-03-01T07:10:31;3.80;99.90
10149;DHT22;5115;50.920;6.376;2023-03-01T07:12:58;4.30;99.90
10149;DHT22;5115;50.920;6.376;2023-03-01T07:15:25;4.80;99.90
10149;DHT22;5115;50.920;6.376;2023-03-01T07:17:51;5.40;99.90
10149;DHT22;5115;50.920;6.376;2023-03-01T07:20:20;5.90;99.90
10149;DHT22;5115;50.920;6.376;2023-03-01T07:22:51;6.40;99.90
10149;DHT22;5115;50.920;6.376;2023-03-01T07:25:17;7.00;99.90
10149;DHT22;5115;50.920;6.376;2023-03-01T07:27:42;7.40;99.90
10149;DHT22;5115;50.920;6.376;2023-03-01T07:30:08;8.00;99.90
10149;DHT22;5115;50.920;6.376;2023-03-01T07:32:34;8.00;99.90
10149;DHT22;5115;50.920;6.376;2023-03-01T07:35:00;8.20;99.90
10149;DHT22;5115;50.920;6.376;2023-03-01T07:37:25;8.50;99.80
10149;DHT22;5115;50.920;6.376;2023-03-01T07:39:51;8.60;99.80
10149;DHT22;5115;50.920;6.376;2023-03-01T07:42:16;9.20;99.90
10149;DHT22;5115;50.920;6.376;2023-03-01T07:44:42;9.60;98.80
10149;DHT22;5115;50.920;6.376;2023-03-01T07:47:07;10.10;97.80
10149;DHT22;5115;50.920;6.376;2023-03-01T07:49:33;10.60;97.90
10149;DHT22;5115;50.920;6.376;2023-03-01T07:51:58;11.30;96.60
10149;DHT22;5115;50.920;6.376;2023-03-01T07:54:24;11.70;96.60
10149;DHT22;5115;50.920;6.376;2023-03-01T07:56:49;12.00;95.30
10149;DHT22;5115;50.920;6.376;2023-03-01T07:59:15;12.30;94.90
10149;DHT22;5115;50.920;6.376;2023-03-01T08:01:40;12.50;94.80
10149;DHT22;5115;50.920;6.376;2023-03-01T08:04:08;13.00;94.60
10149;DHT22;5115;50.920;6.376;2023-03-01T08:06:35;13.20;94.20
10149;DHT22;5115;50.920;6.376;2023-03-01T08:09:00;12.70;93.70
10149;DHT22;5115;50.920;6.376;2023-03-01T08:11:26;13.20;92.60
10149;DHT22;5115;50.920;6.376;2023-03-01T08:13:53;13.40;92.70
10149;DHT22;5115;50.920;6.376;2023-03-01T08:16:19;13.50;92.70
10149;DHT22;5115;50.920;6.376;2023-03-01T08:18:44;13.90;92.70
10149;DHT22;5115;50.920;6.376;2023-03-01T08:21:13;13.90;92.30
10149;DHT22;5115;50.920;6.376;2023-03-01T08:23:39;14.00;91.80
10149;DHT22;5115;50.920;6.376;2023-03-01T08:28:31;14.50;91.90
10149;DHT22;5115;50.920;6.376;2023-03-01T08:30:57;14.80;91.40
10149;DHT22;5115;50.920;6.376;2023-03-01T08:33:22;14.90;91.30
10149;DHT22;5115;50.920;6.376;2023-03-01T08:35:48;14.90;91.00
10149;DHT22;5115;50.920;6.376;2023-03-01T08:38:13;14.90;91.20
10149;DHT22;5115;50.920;6.376;2023-03-01T08:40:39;15.00;91.10
10149;DHT22;5115;50.920;6.376;2023-03-01T08:43:04;14.90;91.20
10149;DHT22;5115;50.920;6.376;2023-03-01T08:45:30;15.20;90.40
10149;DHT22;5115;50.920;6.376;2023-03-01T08:47:55;14.30;90.30
10149;DHT22;5115;50.920;6.376;2023-03-01T08:50:21;14.40;90.70
10149;DHT22;5115;50.920;6.376;2023-03-01T08:52:48;15.00;90.30
10149;DHT22;5115;50.920;6.376;2023-03-01T08:55:13;15.40;90.20
10149;DHT22;5115;50.920;6.376;2023-03-01T08:57:41;15.40;90.30
10149;DHT22;5115;50.920;6.376;2023-03-01T09:00:07;16.00;90.40
10149;DHT22;5115;50.920;6.376;2023-03-01T09:02:34;16.20;89.90
10149;DHT22;5115;50.920;6.376;2023-03-01T09:04:59;15.90;88.70
10149;DHT22;5115;50.920;6.376;2023-03-01T09:07:26;15.70;87.60
10149;DHT22;5115;50.920;6.376;2023-03-01T09:09:53;16.30;88.80
10149;DHT22;5115;50.920;6.376;2023-03-01T09:12:19;16.60;87.00
10149;DHT22;5115;50.920;6.376;2023-03-01T09:14:45;16.60;86.80
10149;DHT22;5115;50.920;6.376;2023-03-01T09:17:10;16.70;87.10
10149;DHT22;5115;50.920;6.376;2023-03-01T09:19:36;15.40;85.40
10149;DHT22;5115;50.920;6.376;2023-03-01T09:22:03;16.30;87.00
10149;DHT22;5115;50.920;6.376;2023-03-01T09:24:29;17.00;85.90
10149;DHT22;5115;50.920;6.376;2023-03-01T09:26:55;16.50;85.00
10149;DHT22;5115;50.920;6.376;2023-03-01T09:29:21;16.80;85.00
10149;DHT22;5115;50.920;6.376;2023-03-01T09:31:47;17.00;84.20
10149;DHT22;5115;50.920;6.376;2023-03-01T09:34:13;17.70;84.50
10149;DHT22;5115;50.920;6.376;2023-03-01T09:36:41;18.10;83.80
10149;DHT22;5115;50.920;6.376;2023-03-01T09:39:07;17.40;82.40
10149;DHT22;5115;50.920;6.376;2023-03-01T09:44:27;16.80;80.50
10149;DHT22;5115;50.920;6.376;2023-03-01T09:46:51;15.80;80.70
10149;DHT22;5115;50.920;6.376;2023-03-01T09:49:20;15.40;83.60
10149;DHT22;5115;50.920;6.376;2023-03-01T09:52:06;15.70;81.90
10149;DHT22;5115;50.920;6.376;2023-03-01T09:54:36;16.50;83.80
10149;DHT22;5115;50.920;6.376;2023-03-01T09:57:22;16.70;84.40
10149;DHT22;5115;50.920;6.376;2023-03-01T10:02:44;17.20;81.20
10149;DHT22;5115;50.920;6.376;2023-03-01T10:10:40;13.90;83.30
10149;DHT22;5115;50.920;6.376;2023-03-01T10:13:19;14.30;85.80
10149;DHT22;5115;50.920;6.376;2023-03-01T10:16:00;14.00;86.40
10149;DHT22;5115;50.920;6.376;2023-03-01T10:18:29;13.30;84.60
10149;DHT22;5115;50.920;6.376;2023-03-01T10:20:58;13.30;87.20
10149;DHT22;5115;50.920;6.376;2023-03-01T10:23:25;13.40;87.50
10149;DHT22;5115;50.920;6.376;2023-03-01T10:26:47;12.10;88.30
10149;DHT22;5115;50.920;6.376;2023-03-01T10:29:14;12.60;88.40
10149;DHT22;5115;50.920;6.376;2023-03-01T10:31:43;12.80;89.00
10149;DHT22;5115;50.920;6.376;2023-03-01T10:34:15;12.70;89.60
10149;DHT22;5115;50.920;6.376;2023-03-01T10:36:43;12.80;90.10
10149;DHT22;5115;50.920;6.376;2023-03-01T10:39:15;13.10;90.70
10149;DHT22;5115;50.920;6.376;2023-03-01T10:41:56;13.20;90.50
10149;DHT22;5115;50.920;6.376;2023-03-01T10:44:58;13.20;90.60
10149;DHT22;5115;50.920;6.376;2023-03-01T10:47:39;12.60;89.10
10149;DHT22;5115;50.920;6.376;2023-03-01T10:50:17;12.20;88.90
10149;DHT22;5115;50.920;6.376;2023-03-01T10:52:56;11.30;90.20
10149;DHT22;5115;50.920;6.376;2023-03-01T10:55:34;11.30;90.10
10149;DHT22;5115;50.920;6.376;2023-03-01T10:58:21;10.30;90.20
10149;DHT22;5115;50.920;6.376;2023-03-01T11:01:04;10.70;91.20
10149;DHT22;5115;50.920;6.376;2023-03-01T11:03:36;10.60;91.50
10149;DHT22;5115;50.920;6.376;2023-03-01T11:06:20;10.60;91.90
10149;DHT22;5115;50.920;6.376;2023-03-01T11:08:48;10.70;91.90
10149;DHT22;5115;50.920;6.376;2023-03-01T11:14:16;10.90;91.10
10149;DHT22;5115;50.920;6.376;2023-03-01T11:16:44;10.00;91.50
10149;DHT22;5115;50.920;6.376;2023-03-01T11:21:43;10.70;91.40
10149;DHT22;5115;50.920;6.376;2023-03-01T11:24:14;10.80;91.50
10149;DHT22;5115;50.920;6.376;2023-03-01T11:26:43;10.60;91.70
10149;DHT22;5115;50.920;6.376;2023-03-01T11:29:23;10.60;91.20
10149;DHT22;5115;50.920;6.376;2023-03-01T11:32:13;10.80;91.60
10149;DHT22;5115;50.920;6.376;2023-03-01T11:34:40;10.90;91.80
10149;DHT22;5115;50.920;6.376;2023-03-01T11:37:26;11.10;92.50
10149;DHT22;5115;50.920;6.376;2023-03-01T11:40:09;10.90;92.10
10149;DHT22;5115;50.920;6.376;2023-03-01T11:45:22;10.50;91.30
10149;DHT22;5115;50.920;6.376;2023-03-01T11:48:17;9.80;92.10
10149;DHT22;5115;50.920;6.376;2023-03-01T11:50:48;9.70;93.40
10149;DHT22;5115;50.920;6.376;2023-03-01T11:56:38;9.80;93.00
10149;DHT22;5115;50.920;6.376;2023-03-01T11:59:32;10.50;93.00
10149;DHT22;5115;50.920;6.376;2023-03-01T12:07:56;10.60;92.60
10149;DHT22;5115;50.920;6.376;2023-03-01T12:10:33;10.80;93.40
10149;DHT22;5115;50.920;6.376;2023-03-01T12:13:27;9.60;93.60
10149;DHT22;5115;50.920;6.376;2023-03-01T12:18:48;9.60;94.10
10149;DHT22;5115;50.920;6.376;2023-03-01T12:29:31;9.60;93.70
10149;DHT22;5115;50.920;6.376;2023-03-01T12:32:21;9.40;93.90
10149;DHT22;5115;50.920;6.376;2023-03-01T12:35:05;9.40;94.20
10149;DHT22;5115;50.920;6.376;2023-03-01T12:37:36;9.20;94.20
10149;DHT22;5115;50.920;6.376;2023-03-01T12:46:02;9.20;94.20
10149;DHT22;5115;50.920;6.376;2023-03-01T12:51:16;9.70;94.70
10149;DHT22;5115;50.920;6.376;2023-03-01T12:53:48;9.10;97.50
10149;DHT22;5115;50.920;6.376;2023-03-01T12:56:17;8.90;92.90
10149;DHT22;5115;50.920;6.376;2023-03-01T13:01:41;9.10;93.20
10149;DHT22;5115;50.920;6.376;2023-03-01T13:04:46;9.80;99.20
10149;DHT22;5115;50.920;6.376;2023-03-01T13:07:35;10.00;95.20
10149;DHT22;5115;50.920;6.376;2023-03-01T13:15:25;9.20;93.70
10149;DHT22;5115;50.920;6.376;2023-03-01T13:20:50;8.80;93.90
10149;DHT22;5115;50.920;6.376;2023-03-01T13:30:57;8.20;94.10
10149;DHT22;5115;50.920;6.376;2023-03-01T13:35:50;8.00;94.10
10149;DHT22;5115;50.920;6.376;2023-03-01T13:41:07;8.00;93.70
10149;DHT22;5115;50.920;6.376;2023-03-01T13:43:38;9.00;94.70
10149;DHT22;5115;50.920;6.376;2023-03-01T13:46:30;8.30;94.70
10149;DHT22;5115;50.920;6.376;2023-03-01T13:48:57;8.10;94.10
10149;DHT22;5115;50.920;6.376;2023-03-01T13:51:25;8.00;94.80
10149;DHT22;5115;50.920;6.376;2023-03-01T13:53:52;7.80;95.00
10149;DHT22;5115;50.920;6.376;2023-03-01T13:56:27;7.90;95.50
10149;DHT22;5115;50.920;6.376;2023-03-01T13:59:01;7.90;95.60
10149;DHT22;5115;50.920;6.376;2023-03-01T14:01:30;7.80;95.60
10149;DHT22;5115;50.920;6.376;2023-03-01T14:03:56;7.80;95.60
10149;DHT22;5115;50.920;6.376;2023-03-01T14:06:28;7.70;95.20
10149;DHT22;5115;50.920;6.376;2023-03-01T14:09:22;7.70;95.20
10149;DHT22;5115;50.920;6.376;2023-03-01T14:20:27;7.90;94.50
10149;DHT22;5115;50.920;6.376;2023-03-01T14:22:56;8.00;94.50
10149;DHT22;5115;50.920;6.376;2023-03-01T14:25:36;7.80;94.50
10149;DHT22;5115;50.920;6.376;2023-03-01T14:28:24;7.70;95.00
10149;DHT22;5115;50.920;6.376;2023-03-01T14:30:54;7.20;95.30
10149;DHT22;5115;50.920;6.376;2023-03-01T14:33:29;7.70;95.60
10149;DHT22;5115;50.920;6.376;2023-03-01T14:38:46;7.70;96.30
10149;DHT22;5115;50.920;6.376;2023-03-01T14:41:18;7.70;95.80
10149;DHT22;5115;50.920;6.376;2023-03-01T14:44:11;7.80;95.20
10149;DHT22;5115;50.920;6.376;2023-03-01T14:46:36;7.70;95.50
10149;DHT22;5115;50.920;6.376;2023-03-01T14:49:19;7.70;96.20
10149;DHT22;5115;50.920;6.376;2023-03-01T14:54:25;7.80;96.60
10149;DHT22;5115;50.920;6.376;2023-03-01T14:56:54;7.80;96.20
10149;DHT22;5115;50.920;6.376;2023-03-01T14:59:23;7.80;96.30
10149;DHT22;5115;50.920;6.376;2023-03-01T15:01:51;7.90;96.30
10149;DHT22;5115;50.920;6.376;2023-03-01T15:04:18;7.90;96.70
10149;DHT22;5115;50.920;6.376;2023-03-01T15:06:45;7.90;96.10
10149;DHT22;5115;50.920;6.376;2023-03-01T15:09:15;7.70;95.80
10149;DHT22;5115;50.920;6.376;2023-03-01T15:11:42;7.80;95.50
10149;DHT22;5115;50.920;6.376;2023-03-01T15:14:39;7.80;95.80
10149;DHT22;5115;50.920;6.376;2023-03-01T15:17:33;7.70;95.90
10149;DHT22;5115;50.920;6.376;2023-03-01T15:20:01;7.70;96.10
10149;DHT22;5115;50.920;6.376;2023-03-01T15:22:28;7.70;96.50
10149;DHT22;5115;50.920;6.376;2023-03-01T15:24:54;7.80;96.10
10149;DHT22;5115;50.920;6.376;2023-03-01T15:27:22;7.80;96.50
10149;DHT22;5115;50.920;6.376;2023-03-01T15:29:58;7.70;96.90
10149;DHT22;5115;50.920;6.376;2023-03-01T15:32:35;7.70;96.60
10149;DHT22;5115;50.920;6.376;2023-03-01T15:35:33;7.80;96.70
10149;DHT22;5115;50.920;6.376;2023-03-01T15:38:00;7.80;96.70
10149;DHT22;5115;50.920;6.376;2023-03-01T15:40:29;7.80;96.90
10149;DHT22;5115;50.920;6.376;2023-03-01T15:43:03;7.80;97.00
10149;DHT22;5115;50.920;6.376;2023-03-01T15:45:31;7.80;97.00
10149;DHT22;5115;50.920;6.376;2023-03-01T15:48:17;7.80;96.30
10149;DHT22;5115;50.920;6.376;2023-03-01T15:50:44;7.80;96.80
10149;DHT22;5115;50.920;6.376;2023-03-01T15:53:13;7.80;96.80
10149;DHT22;5115;50.920;6.376;2023-03-01T15:55:40;7.70;97.00
10149;DHT22;5115;50.920;6.376;2023-03-01T15:58:12;7.50;97.40
10149;DHT22;5115;50.920;6.376;2023-03-01T16:00:38;8.40;97.80
10149;DHT22;5115;50.920;6.376;2023-03-01T16:03:05;7.60;97.10
10149;DHT22;5115;50.920;6.376;2023-03-01T16:05:33;9.30;98.50
10149;DHT22;5115;50.920;6.376;2023-03-01T16:08:00;7.60;98.00
10149;DHT22;5115;50.920;6.376;2023-03-01T16:10:26;7.40;98.10
10149;DHT22;5115;50.920;6.376;2023-03-01T16:12:52;7.40;98.80
10149;DHT22;5115;50.920;6.376;2023-03-01T16:15:21;8.20;99.30
10149;DHT22;5115;50.920;6.376;2023-03-01T16:17:47;7.40;98.90
10149;DHT22;5115;50.920;6.376;2023-03-01T16:20:12;7.30;99.00
10149;DHT22;5115;50.920;6.376;2023-03-01T16:22:44;7.90;99.30
10149;DHT22;5115;50.920;6.376;2023-03-01T16:25:11;7.30;99.10
10149;DHT22;5115;50.920;6.376;2023-03-01T16:27:38;7.10;99.00
10149;DHT22;5115;50.920;6.376;2023-03-01T16:30:05;7.00;99.00
10149;DHT22;5115;50.920;6.376;2023-03-01T16:32:31;6.90;99.40
10149;DHT22;5115;50.920;6.376;2023-03-01T16:34:56;6.90;99.80
10149;DHT22;5115;50.920;6.376;2023-03-01T16:37:22;6.90;99.90
10149;DHT22;5115;50.920;6.376;2023-03-01T16:39:48;6.80;99.90
10149;DHT22;5115;50.920;6.376;2023-03-01T16:42:16;6.80;99.90
10149;DHT22;5115;50.920;6.376;2023-03-01T16:44:42;7.40;99.90
10149;DHT22;5115;50.920;6.376;2023-03-01T16:47:08;6.70;99.90
10149;DHT22;5115;50.920;6.376;2023-03-01T16:49:34;6.60;99.90
10149;DHT22;5115;50.920;6.376;2023-03-01T16:51:59;6.50;99.90
10149;DHT22;5115;50.920;6.376;2023-03-01T16:54:25;6.50;99.90
10149;DHT22;5115;50.920;6.376;2023-03-01T16:56:52;6.30;99.90
10149;DHT22;5115;50.920;6.376;2023-03-01T16:59:17;6.30;99.90
10149;DHT22;5115;50.920;6.376;2023-03-01T17:01:44;6.30;99.90
10149;DHT22;5115;50.920;6.376;2023-03-01T17:04:11;6.20;99.90
10149;DHT22;5115;50.920;6.376;2023-03-01T17:06:37;6.30;99.90
10149;DHT22;5115;50.920;6.376;2023-03-01T17:09:03;6.40;99.90
10149;DHT22;5115;50.920;6.376;2023-03-01T17:11:30;6.30;99.90
10149;DHT22;5115;50.920;6.376;2023-03-01T17:13:55;6.30;99.90
10149;DHT22;5115;50.920;6.376;2023-03-01T17:16:21;6.30;99.90
10149;DHT22;5115;50.920;6.376;2023-03-01T17:18:47;6.20;99.90
10149;DHT22;5115;50.920;6.376;2023-03-01T17:21:13;6.20;99.90
10149;DHT22;5115;50.920;6.376;2023-03-01T17:23:43;6.20;99.90
10149;DHT22;5115;50.920;6.376;2023-03-01T17:26:09;6.20;99.90
10149;DHT22;5115;50.920;6.376;2023-03-01T17:28:37;6.10;99.90
10149;DHT22;5115;50.920;6.376;2023-03-01T17:31:04;6.00;99.90
10149;DHT22;5115;50.920;6.376;2023-03-01T17:33:31;6.00;99.90
10149;DHT22;5115;50.920;6.376;2023-03-01T17:35:57;6.00;99.90
10149;DHT22;5115;50.920;6.376;2023-03-01T17:38:24;5.90;99.90
10149;DHT22;5115;50.920;6.376;2023-03-01T17:40:50;6.10;99.90
10149;DHT22;5115;50.920;6.376;2023-03-01T17:43:17;5.70;99.90
10149;DHT22;5115;50.920;6.376;2023-03-01T17:45:44;5.60;99.90
10149;DHT22;5115;50.920;6.376;2023-03-01T17:48:14;5.60;99.90